CA-0548 weather

CLOSED North Cariboo Air Park
Prince George, British Columbia, Canada

Public forecast

Using degrees Celsius for public forecast. Weather courtesy of forecast.io.

Closest aviation weather report (METAR) to North Cariboo Air Park

Closest report is Prince George Airport, 14.1 nm (26.1 km) ESE. Retrieved 2020/08/03 20:00 UTC (10 minutes ago):

CYXS 032000Z AUTO VRB06KT 9SM FEW040 SCT050 BKN065 18/13 A3002 RMK SLP174 DENSITY ALT 3000FT

Closest aviation forecast (TAF) to North Cariboo Air Park

Closest forecast is Prince George Airport, 14.1 nm (26.1 km) ESE. Retrieved 2020/08/03 19:39 UTC (31 minutes ago):

TAF CYXS 031838Z 0319/0407 21008KT P6SM FEW040 BKN060 TEMPO 0319/0407 P6SM -SHRA BKN040 PROB30 0320/0403 VRB15G25KT 5SM TSRA BKN030CB RMK FCST BASED ON AUTO OBS NXT FCST BY 040100Z